Time;durP1;ratioP1;P1;durP2;ratioP2;P2;SDS_P1;SDS_P2;PMS_P1;PMS_P2;Temp;Humidity;BMP_temperature;BMP_pressure;BME280_temperature;BME280_humidity;BME280_pressure;Samples;Min_cycle;Max_cycle;Signal;HPM_P1;HPM_P2
2022/07/03 00:01:36;;;;;;;9.40;2.53;;;18.10;99.90;;;;;;4954345;28;205935;-78
2022/07/03 00:04:06;;;;;;;8.27;2.28;;;18.10;99.90;;;;;;4991443;28;20065;-78
2022/07/03 00:06:33;;;;;;;8.32;2.13;;;18.00;99.90;;;;;;4904739;28;209119;-78
2022/07/03 00:09:00;;;;;;;8.50;2.50;;;18.00;99.90;;;;;;5002240;28;20046;-77
2022/07/03 00:11:26;;;;;;;7.43;2.03;;;17.90;99.90;;;;;;4947930;28;265501;-77
2022/07/03 00:13:53;;;;;;;8.02;2.22;;;18.00;99.90;;;;;;4998954;28;20060;-78
2022/07/03 00:16:19;;;;;;;7.45;2.20;;;17.90;99.90;;;;;;4934618;28;243242;-78
2022/07/03 00:18:47;;;;;;;11.40;2.35;;;17.90;99.90;;;;;;5004235;28;20057;-77
2022/07/03 00:21:19;;;;;;;7.78;2.40;;;17.80;99.90;;;;;;4939777;28;224251;-77
2022/07/03 00:23:52;;;;;;;6.55;2.10;;;17.70;99.90;;;;;;5008029;28;20330;-77
2022/07/03 00:26:20;;;;;;;7.47;2.28;;;17.70;99.90;;;;;;4924705;28;221666;-77
2022/07/03 00:28:47;;;;;;;8.32;2.55;;;17.70;99.90;;;;;;5021820;28;20050;-76
2022/07/03 00:31:14;;;;;;;8.00;2.20;;;17.60;99.90;;;;;;4921194;28;224677;-77
2022/07/03 00:33:42;;;;;;;10.02;2.50;;;17.60;99.90;;;;;;5000964;28;20150;-79
2022/07/03 00:36:09;;;;;;;8.02;2.42;;;17.50;99.90;;;;;;4949353;28;216624;-77
2022/07/03 00:38:35;;;;;;;7.97;2.30;;;17.50;99.90;;;;;;4998013;28;20041;-78
2022/07/03 00:41:03;;;;;;;7.53;2.28;;;17.40;99.90;;;;;;4955269;28;260952;-78
2022/07/03 00:43:30;;;;;;;7.28;2.38;;;17.40;99.90;;;;;;5007270;28;20062;-78
2022/07/03 00:46:06;;;;;;;9.20;2.70;;;17.30;99.90;;;;;;4940766;28;209585;-77
2022/07/03 00:48:37;;;;;;;8.07;2.55;;;17.20;99.90;;;;;;4986387;28;20045;-77
2022/07/03 00:51:07;;;;;;;7.50;2.60;;;17.10;99.90;;;;;;4935798;28;207853;-78
2022/07/03 00:53:35;;;;;;;7.45;2.10;;;17.10;99.90;;;;;;5008305;28;20061;-77
2022/07/03 00:56:04;;;;;;;7.75;2.50;;;17.10;99.90;;;;;;4943570;28;213674;-77
2022/07/03 00:58:33;;;;;;;8.35;2.70;;;17.00;99.90;;;;;;5003399;28;20057;-76
2022/07/03 01:01:00;;;;;;;9.18;2.70;;;17.00;99.90;;;;;;4900218;28;221997;-78
2022/07/03 01:03:27;;;;;;;9.70;2.33;;;16.90;99.90;;;;;;4985847;28;20050;-77
2022/07/03 01:05:55;;;;;;;8.00;2.65;;;16.90;99.90;;;;;;4937201;28;207359;-77
2022/07/03 01:08:43;;;;;;;7.65;2.40;;;16.80;99.90;;;;;;4986775;28;20411;-77
2022/07/03 01:11:24;;;;;;;10.35;3.40;;;16.80;99.90;;;;;;4941369;28;258815;-76
2022/07/03 01:14:32;;;;;;;8.32;2.47;;;16.80;99.90;;;;;;4992807;28;20415;-78
2022/07/03 01:16:59;;;;;;;9.35;2.95;;;16.70;99.90;;;;;;4901539;28;208930;-77
2022/07/03 01:19:41;;;;;;;8.52;2.78;;;16.70;99.90;;;;;;4988874;28;265394;-77
2022/07/03 01:22:29;;;;;;;9.18;2.85;;;16.70;99.90;;;;;;4948365;28;208224;-77
2022/07/03 01:25:13;;;;;;;9.05;2.67;;;16.60;99.90;;;;;;4995952;28;179507;-76
2022/07/03 01:28:00;;;;;;;8.90;2.78;;;16.60;99.90;;;;;;4924870;28;207487;-77
2022/07/03 01:30:31;;;;;;;9.75;3.10;;;16.50;99.90;;;;;;4953710;28;271474;-78
2022/07/03 01:33:15;;;;;;;8.25;3.00;;;16.50;99.90;;;;;;4982088;28;20054;-77
2022/07/03 01:35:54;;;;;;;10.27;3.28;;;16.40;99.90;;;;;;4920208;28;204030;-77
2022/07/03 01:38:21;;;;;;;8.90;3.13;;;16.40;99.90;;;;;;5002817;28;20073;-77
2022/07/03 01:40:50;;;;;;;8.65;3.10;;;16.40;99.90;;;;;;4938533;28;225772;-77
2022/07/03 01:43:21;;;;;;;9.75;3.33;;;16.40;99.90;;;;;;4984132;28;20068;-78
2022/07/03 01:45:49;;;;;;;8.80;2.70;;;16.30;99.90;;;;;;4949337;28;212117;-78
2022/07/03 01:48:17;;;;;;;8.88;3.05;;;16.30;99.90;;;;;;4989116;28;20066;-77
2022/07/03 01:50:45;;;;;;;9.25;3.13;;;16.30;99.90;;;;;;4948038;28;175758;-78
2022/07/03 01:53:12;;;;;;;7.78;3.10;;;16.30;99.90;;;;;;4991692;28;20054;-77
2022/07/03 01:55:41;;;;;;;9.27;3.25;;;16.20;99.90;;;;;;4938516;28;207802;-78
2022/07/03 01:58:08;;;;;;;8.20;2.97;;;16.20;99.90;;;;;;4982110;28;20058;-78
2022/07/03 02:00:46;;;;;;;7.40;2.90;;;16.10;99.90;;;;;;4944762;28;205802;-77
2022/07/03 02:03:25;;;;;;;8.43;2.95;;;16.10;99.90;;;;;;5001031;28;20061;-77
2022/07/03 02:06:01;;;;;;;8.95;3.05;;;16.00;99.90;;;;;;4936249;28;213963;-77
2022/07/03 02:08:43;;;;;;;8.38;2.85;;;16.00;99.90;;;;;;4982625;28;20054;-78
2022/07/03 02:11:09;;;;;;;11.32;3.50;;;16.00;99.90;;;;;;4943748;28;245545;-78
2022/07/03 02:14:03;;;;;;;8.23;3.38;;;15.90;99.90;;;;;;5002281;28;20305;-78
2022/07/03 02:16:35;;;;;;;13.40;3.78;;;15.90;99.90;;;;;;4921428;28;206695;-77
2022/07/03 02:19:06;;;;;;;8.75;3.10;;;15.80;99.90;;;;;;4999983;28;20287;-78
2022/07/03 02:21:33;;;;;;;8.50;3.50;;;15.80;99.90;;;;;;4909738;28;228493;-77
2022/07/03 02:24:18;;;;;;;9.88;3.22;;;15.80;99.90;;;;;;4988324;28;20065;-77
2022/07/03 02:26:59;;;;;;;8.70;3.10;;;15.80;99.90;;;;;;4926136;28;216622;-78
2022/07/03 02:29:31;;;;;;;8.10;3.10;;;15.70;99.90;;;;;;4981409;28;252065;-78
2022/07/03 02:32:04;;;;;;;8.52;3.50;;;15.70;99.90;;;;;;4954323;28;200631;-77
2022/07/03 02:34:32;;;;;;;8.43;3.65;;;15.70;99.90;;;;;;5002766;28;158458;-77
2022/07/03 02:37:11;;;;;;;8.48;3.40;;;15.80;99.90;;;;;;4949918;28;206626;-77
2022/07/03 02:39:52;;;;;;;10.80;3.55;;;15.70;99.90;;;;;;4985505;28;217322;-77
2022/07/03 02:42:42;;;;;;;9.57;3.38;;;15.60;99.90;;;;;;4955662;28;189844;-78
2022/07/03 02:45:11;;;;;;;11.60;4.05;;;15.50;99.90;;;;;;4996821;28;113470;-77
2022/07/03 02:47:43;;;;;;;10.20;4.05;;;15.50;99.90;;;;;;4933234;28;208255;-78
2022/07/03 02:50:16;;;;;;;9.80;3.80;;;15.50;99.90;;;;;;4971159;28;197845;-77
2022/07/03 02:52:52;;;;;;;9.13;3.70;;;15.40;99.90;;;;;;4932744;28;205579;-77
2022/07/03 02:55:39;;;;;;;8.80;4.10;;;15.40;99.90;;;;;;4962133;28;187846;-78
2022/07/03 02:58:50;;;;;;;12.23;3.80;;;15.40;99.90;;;;;;4971921;28;208921;-80
2022/07/03 03:01:20;;;;;;;10.73;4.25;;;15.40;99.90;;;;;;4927562;28;215033;-80
2022/07/03 03:04:08;;;;;;;10.30;3.78;;;15.30;99.90;;;;;;5001239;28;20568;-79
2022/07/03 03:06:37;;;;;;;10.43;3.97;;;15.30;99.90;;;;;;4901404;28;173181;-80
2022/07/03 03:09:04;;;;;;;8.63;4.13;;;15.30;99.90;;;;;;4998360;28;20049;-80
2022/07/03 03:11:43;;;;;;;8.88;3.83;;;15.30;99.90;;;;;;4941855;28;212667;-80
2022/07/03 03:14:13;;;;;;;9.60;3.80;;;15.30;99.90;;;;;;4964189;28;251508;-79
2022/07/03 03:16:48;;;;;;;10.23;4.30;;;15.30;99.90;;;;;;4943711;28;206255;-80
2022/07/03 03:19:14;;;;;;;10.30;4.30;;;15.30;99.90;;;;;;4972552;28;276520;-79
2022/07/03 03:21:58;;;;;;;12.23;4.55;;;15.30;99.90;;;;;;4938960;28;226743;-79
2022/07/03 03:24:25;;;;;;;11.88;4.60;;;15.30;99.90;;;;;;4987981;28;91362;-80
2022/07/03 03:26:51;;;;;;;10.70;4.40;;;15.30;99.90;;;;;;4950508;28;206775;-79
2022/07/03 03:29:18;;;;;;;9.67;4.50;;;15.40;99.90;;;;;;4980300;28;192943;-80
2022/07/03 03:31:44;;;;;;;10.13;4.68;;;15.40;99.90;;;;;;4932146;28;203922;-80
2022/07/03 03:34:11;;;;;;;10.18;4.20;;;15.40;99.90;;;;;;4967174;28;62366;-79
2022/07/03 03:36:38;;;;;;;9.68;4.38;;;15.40;99.90;;;;;;4925000;28;206558;-80
2022/07/03 03:39:04;;;;;;;9.43;4.20;;;15.40;99.90;;;;;;5003736;28;20050;-80
2022/07/03 03:41:30;;;;;;;11.90;4.15;;;15.40;99.90;;;;;;4945332;28;208700;-80
2022/07/03 03:43:57;;;;;;;10.88;4.22;;;15.40;99.90;;;;;;4984767;28;20042;-80
2022/07/03 03:46:23;;;;;;;8.48;3.58;;;15.40;99.90;;;;;;4932058;28;205842;-80
2022/07/03 03:48:49;;;;;;;10.55;4.25;;;15.40;99.90;;;;;;5015839;28;20078;-79
2022/07/03 03:51:15;;;;;;;11.57;3.88;;;15.40;99.90;;;;;;4947504;28;229589;-79
2022/07/03 03:53:42;;;;;;;8.82;4.10;;;15.40;99.90;;;;;;4992437;28;20391;-79
2022/07/03 03:56:11;;;;;;;9.45;4.07;;;15.40;99.90;;;;;;4948926;28;211613;-80
2022/07/03 03:58:40;;;;;;;9.80;4.00;;;15.40;99.90;;;;;;4996989;28;20061;-80
2022/07/03 04:01:07;;;;;;;12.68;4.10;;;15.50;99.90;;;;;;4944247;28;205995;-80
2022/07/03 04:03:35;;;;;;;10.45;4.65;;;15.50;99.90;;;;;;4981699;28;20123;-79
2022/07/03 04:06:02;;;;;;;12.43;4.72;;;15.40;99.90;;;;;;4932014;28;200087;-79
2022/07/03 04:08:29;;;;;;;9.63;4.70;;;15.40;99.90;;;;;;4977632;28;20081;-81
2022/07/03 04:10:55;;;;;;;10.07;4.63;;;15.40;99.90;;;;;;4961650;28;205932;-79
2022/07/03 04:13:22;;;;;;;11.25;4.25;;;15.40;99.90;;;;;;4993640;28;20124;-79
2022/07/03 04:15:50;;;;;;;9.70;4.70;;;15.40;99.90;;;;;;4927824;28;208694;-78
2022/07/03 04:18:17;;;;;;;9.63;4.80;;;15.40;99.90;;;;;;4993338;28;20046;-77
2022/07/03 04:20:44;;;;;;;9.98;5.28;;;15.40;99.90;;;;;;4932483;28;226820;-77
2022/07/03 04:23:10;;;;;;;10.50;4.68;;;15.40;99.90;;;;;;4966253;28;20058;-77
2022/07/03 04:25:36;;;;;;;9.77;4.78;;;15.40;99.90;;;;;;4941695;28;223366;-77
2022/07/03 04:28:03;;;;;;;9.25;4.60;;;15.40;99.90;;;;;;4999176;28;20057;-78
2022/07/03 04:30:29;;;;;;;12.70;4.68;;;15.40;99.90;;;;;;4946982;28;237550;-77
2022/07/03 04:32:55;;;;;;;10.75;5.03;;;15.40;99.90;;;;;;4997584;28;20057;-78
2022/07/03 04:35:21;;;;;;;10.32;4.82;;;15.50;99.90;;;;;;4937205;28;209620;-77
2022/07/03 04:37:50;;;;;;;9.73;4.65;;;15.50;99.90;;;;;;4996527;28;20054;-77
2022/07/03 04:40:17;;;;;;;12.10;4.93;;;15.50;99.90;;;;;;4968159;28;214972;-79
2022/07/03 04:42:44;;;;;;;9.95;4.35;;;15.50;99.90;;;;;;4988905;28;76501;-77
2022/07/03 04:45:10;;;;;;;9.43;4.03;;;15.50;99.90;;;;;;4975238;28;211374;-77
2022/07/03 04:47:36;;;;;;;10.07;4.30;;;15.60;99.90;;;;;;4927168;28;208766;-78
2022/07/03 04:50:03;;;;;;;8.80;4.15;;;15.60;99.90;;;;;;4985827;28;206836;-81
2022/07/03 04:52:29;;;;;;;9.52;4.80;;;15.70;99.90;;;;;;4959910;28;209369;-80
2022/07/03 04:54:55;;;;;;;9.77;5.22;;;15.70;99.90;;;;;;4991848;28;144753;-80
2022/07/03 04:57:21;;;;;;;12.02;4.45;;;15.70;99.90;;;;;;4944648;28;212535;-80
2022/07/03 04:59:47;;;;;;;10.40;4.80;;;15.80;99.90;;;;;;4991739;28;178185;-80
2022/07/03 05:02:13;;;;;;;9.77;4.93;;;15.90;99.90;;;;;;4945535;28;208827;-80
2022/07/03 05:04:39;;;;;;;10.07;4.40;;;16.00;99.90;;;;;;4988940;28;133196;-80
2022/07/03 05:07:06;;;;;;;9.10;4.07;;;16.00;99.90;;;;;;4944387;28;206363;-80
2022/07/03 05:09:32;;;;;;;10.05;4.57;;;16.10;99.90;;;;;;5003980;28;20898;-79
2022/07/03 05:11:58;;;;;;;13.13;4.22;;;16.20;99.90;;;;;;4954004;28;205237;-79
2022/07/03 05:14:24;;;;;;;11.97;4.40;;;16.30;99.90;;;;;;4989108;28;260995;-80
2022/07/03 05:16:50;;;;;;;10.63;4.65;;;16.40;99.90;;;;;;4957677;28;221900;-80
2022/07/03 05:19:16;;;;;;;11.15;4.43;;;16.50;99.90;;;;;;4968949;28;246265;-80
2022/07/03 05:21:43;;;;;;;8.73;3.83;;;16.60;99.90;;;;;;4957687;28;214890;-80
2022/07/03 05:24:09;;;;;;;10.38;4.30;;;16.70;99.90;;;;;;4970018;28;244801;-80
2022/07/03 05:26:36;;;;;;;9.35;4.10;;;16.80;99.90;;;;;;4950046;28;206390;-80
2022/07/03 05:29:02;;;;;;;11.13;4.15;;;16.90;99.90;;;;;;5008723;28;20065;-80
2022/07/03 05:31:28;;;;;;;9.75;3.50;;;17.00;99.90;;;;;;4961389;28;205294;-80
2022/07/03 05:33:54;;;;;;;9.43;3.80;;;17.10;99.90;;;;;;5015166;28;20081;-80
2022/07/03 05:36:20;;;;;;;12.35;3.78;;;17.30;99.90;;;;;;4952054;28;205549;-80
2022/07/03 05:41:31;;;;;;;9.60;3.70;;;17.60;99.90;;;;;;4932474;28;212857;-81
2022/07/03 05:43:57;;;;;;;10.25;3.42;;;17.80;99.90;;;;;;4998863;28;20073;-80
2022/07/03 05:46:23;;;;;;;10.77;3.58;;;18.00;99.90;;;;;;4923205;28;215144;-80
2022/07/03 05:48:49;;;;;;;11.30;3.70;;;18.20;99.90;;;;;;4995672;28;20053;-80
2022/07/03 05:51:16;;;;;;;10.10;3.20;;;18.20;99.90;;;;;;4936256;28;226052;-81
2022/07/03 05:53:42;;;;;;;10.35;3.10;;;18.30;99.90;;;;;;4987764;28;20054;-81
2022/07/03 05:56:08;;;;;;;8.63;3.15;;;18.30;99.90;;;;;;4932345;28;253384;-80
2022/07/03 05:58:34;;;;;;;9.65;3.80;;;18.40;99.90;;;;;;4998094;28;21706;-81
2022/07/03 06:01:00;;;;;;;8.48;3.10;;;18.50;99.90;;;;;;4934162;28;152682;-80
2022/07/03 06:03:26;;;;;;;9.52;3.10;;;18.50;99.90;;;;;;4991137;28;20050;-80
2022/07/03 06:05:52;;;;;;;9.35;3.28;;;18.70;99.90;;;;;;4927344;28;208682;-80
2022/07/03 06:08:18;;;;;;;10.45;3.10;;;18.80;99.90;;;;;;4994353;28;20054;-80
2022/07/03 06:10:45;;;;;;;9.77;3.15;;;18.80;99.90;;;;;;4942795;28;275397;-80
2022/07/03 06:13:11;;;;;;;7.50;2.90;;;18.90;99.90;;;;;;5001704;28;20061;-81
2022/07/03 06:15:37;;;;;;;9.25;2.83;;;19.10;99.90;;;;;;4937859;28;213232;-80
2022/07/03 06:18:03;;;;;;;10.30;3.35;;;19.20;99.90;;;;;;4998198;28;20073;-80
2022/07/03 06:20:29;;;;;;;8.87;3.07;;;19.50;99.90;;;;;;4955713;28;206952;-80
2022/07/03 06:22:55;;;;;;;7.55;2.78;;;19.60;99.90;;;;;;5001002;28;20064;-80
2022/07/03 06:25:22;;;;;;;7.93;2.40;;;19.90;99.90;;;;;;4959004;28;201382;-79
2022/07/03 06:27:48;;;;;;;10.00;2.97;;;20.00;99.90;;;;;;5008561;28;20058;-79
2022/07/03 06:30:14;;;;;;;8.70;2.20;;;20.30;99.90;;;;;;4986619;28;170859;-79
2022/07/03 06:32:40;;;;;;;7.30;1.73;;;20.50;99.90;;;;;;4971189;28;47256;-78
2022/07/03 06:35:07;;;;;;;6.03;1.30;;;20.60;99.90;;;;;;4991336;28;176922;-78
2022/07/03 06:37:33;;;;;;;8.30;1.50;;;20.70;99.90;;;;;;4961283;28;203537;-78
2022/07/03 06:39:59;;;;;;;6.43;1.30;;;20.70;99.90;;;;;;5002988;28;288926;-78
2022/07/03 06:42:25;;;;;;;7.20;1.50;;;20.80;99.90;;;;;;4964671;28;205266;-78
2022/07/03 06:44:52;;;;;;;6.97;1.33;;;21.00;99.90;;;;;;5005999;28;22444;-77
2022/07/03 06:47:18;;;;;;;6.40;1.40;;;21.20;99.90;;;;;;4942989;28;184281;-78
2022/07/03 06:49:44;;;;;;;7.18;1.38;;;21.10;99.90;;;;;;4991238;28;227955;-78
2022/07/03 06:52:11;;;;;;;8.52;1.42;;;21.10;99.90;;;;;;4943179;28;186510;-78
2022/07/03 06:54:43;;;;;;;7.35;1.50;;;21.00;99.90;;;;;;4991441;28;116660;-78
2022/07/03 06:57:13;;;;;;;8.40;1.65;;;21.10;99.90;;;;;;4949724;28;205570;-77
2022/07/03 06:59:39;;;;;;;5.77;1.50;;;21.30;99.90;;;;;;4981640;28;130302;-77
2022/07/03 07:02:06;;;;;;;8.30;1.58;;;21.50;99.90;;;;;;4944649;28;205192;-77
2022/07/03 07:04:32;;;;;;;8.20;1.90;;;21.50;99.90;;;;;;4975125;28;228321;-77
2022/07/03 07:06:58;;;;;;;7.90;1.50;;;21.70;99.90;;;;;;4952832;28;219366;-77
2022/07/03 07:09:24;;;;;;;9.02;1.67;;;21.80;99.80;;;;;;4989148;28;257749;-78
2022/07/03 07:11:51;;;;;;;7.70;1.40;;;21.70;99.50;;;;;;4952156;28;215983;-77
2022/07/03 07:14:17;;;;;;;6.15;1.35;;;21.70;99.60;;;;;;4991356;28;265671;-77
2022/07/03 07:16:43;;;;;;;7.78;1.38;;;21.70;99.70;;;;;;4965765;28;202337;-77
2022/07/03 07:19:09;;;;;;;8.88;1.70;;;21.50;99.50;;;;;;4982325;28;255687;-77
2022/07/03 07:21:35;;;;;;;6.10;1.42;;;21.50;99.30;;;;;;4934703;28;220825;-78
2022/07/03 07:24:01;;;;;;;7.90;1.85;;;21.60;99.80;;;;;;4991697;28;20424;-77
2022/07/03 07:26:27;;;;;;;6.90;1.52;;;21.80;99.60;;;;;;4933543;28;202919;-77
2022/07/03 07:28:53;;;;;;;6.72;1.40;;;22.00;99.70;;;;;;4990546;28;20080;-77
2022/07/03 07:31:19;;;;;;;7.85;1.35;;;22.20;99.80;;;;;;4941008;28;205444;-77
2022/07/03 07:33:45;;;;;;;7.65;1.60;;;22.30;99.50;;;;;;4995660;28;20053;-77
2022/07/03 07:36:12;;;;;;;7.90;1.60;;;22.50;99.10;;;;;;4938249;28;207783;-76
2022/07/03 07:38:38;;;;;;;6.32;1.60;;;22.70;99.10;;;;;;4990914;28;20053;-78
2022/07/03 07:41:04;;;;;;;11.60;1.75;;;22.60;98.50;;;;;;4947739;28;208565;-77
2022/07/03 07:43:30;;;;;;;8.50;1.33;;;22.60;99.00;;;;;;4988202;28;20046;-77
2022/07/03 07:45:56;;;;;;;6.75;1.30;;;22.70;98.30;;;;;;4942531;28;215176;-78
2022/07/03 07:48:22;;;;;;;6.30;1.40;;;22.80;98.20;;;;;;4995964;28;20061;-78
2022/07/03 07:50:49;;;;;;;6.95;1.60;;;23.10;97.70;;;;;;4944113;28;207392;-76
2022/07/03 07:53:16;;;;;;;7.88;1.70;;;23.30;96.40;;;;;;4974418;28;20058;-78
2022/07/03 07:55:42;;;;;;;7.57;1.50;;;23.50;95.80;;;;;;4939871;28;207074;-78
2022/07/03 07:58:08;;;;;;;4.40;1.10;;;23.20;96.40;;;;;;4980970;28;20073;-77
2022/07/03 08:00:34;;;;;;;5.70;1.20;;;23.10;95.90;;;;;;4957305;28;254708;-76
2022/07/03 08:05:45;;;;;;;5.38;1.10;;;23.10;94.10;;;;;;4952437;28;175853;-76
2022/07/03 08:08:16;;;;;;;5.07;1.23;;;23.00;94.00;;;;;;5003745;28;20491;-77
2022/07/03 08:10:48;;;;;;;7.22;1.40;;;23.30;93.50;;;;;;4955309;28;206886;-77
2022/07/03 08:13:19;;;;;;;5.93;1.10;;;23.50;94.50;;;;;;4995084;28;20503;-78
2022/07/03 08:15:46;;;;;;;7.18;1.20;;;23.80;94.40;;;;;;4936227;28;223074;-77
2022/07/03 08:18:13;;;;;;;6.88;1.20;;;24.20;94.50;;;;;;4985594;28;20057;-78
2022/07/03 08:20:39;;;;;;;6.35;1.30;;;24.50;93.60;;;;;;4933381;28;208986;-78
2022/07/03 08:23:05;;;;;;;6.00;1.17;;;24.70;93.20;;;;;;5002531;28;20936;-79
2022/07/03 08:25:32;;;;;;;6.63;1.20;;;24.70;91.50;;;;;;4951269;28;202446;-78
2022/07/03 08:27:59;;;;;;;5.93;1.15;;;24.70;92.50;;;;;;4994463;28;20389;-77
2022/07/03 08:30:25;;;;;;;6.05;0.93;;;25.00;90.10;;;;;;4955995;28;164357;-78
2022/07/03 08:32:54;;;;;;;5.50;1.02;;;24.90;88.00;;;;;;5022385;28;20046;-78
2022/07/03 08:35:20;;;;;;;5.35;0.80;;;24.90;80.70;;;;;;4945688;28;207640;-79
2022/07/03 08:37:47;;;;;;;3.80;0.90;;;24.90;78.00;;;;;;4985054;28;20058;-77
2022/07/03 08:40:14;;;;;;;4.82;0.90;;;24.70;74.30;;;;;;5009771;28;149165;-77
2022/07/03 08:42:47;;;;;;;5.38;0.90;;;24.60;75.30;;;;;;4938099;28;196854;-76
2022/07/03 08:45:17;;;;;;;6.70;1.00;;;24.40;73.50;;;;;;5006269;28;178101;-76
2022/07/03 08:47:44;;;;;;;6.05;1.02;;;24.30;75.70;;;;;;4923056;28;117458;-77
2022/07/03 08:50:16;;;;;;;7.47;1.23;;;24.20;76.40;;;;;;4972155;28;131959;-78
2022/07/03 08:52:43;;;;;;;5.38;0.98;;;24.50;74.70;;;;;;4934018;28;27349;-76
2022/07/03 08:55:11;;;;;;;5.93;1.13;;;24.70;76.30;;;;;;4990995;28;80691;-78
2022/07/03 08:57:38;;;;;;;5.07;1.02;;;24.90;75.70;;;;;;4936655;28;209221;-77
2022/07/03 09:00:06;;;;;;;4.20;1.00;;;25.20;74.20;;;;;;4996928;28;133124;-79
2022/07/03 09:02:33;;;;;;;8.85;1.08;;;25.40;71.00;;;;;;4922934;28;117663;-78
2022/07/03 09:05:01;;;;;;;7.07;0.82;;;25.50;71.30;;;;;;4975805;28;188203;-77
2022/07/03 09:07:34;;;;;;;4.18;1.00;;;25.60;69.40;;;;;;4943542;28;204655;-78
2022/07/03 09:10:00;;;;;;;5.10;0.98;;;25.90;70.70;;;;;;4965651;28;230377;-79
2022/07/03 09:12:29;;;;;;;4.10;0.82;;;26.20;66.70;;;;;;4944500;28;208767;-78
2022/07/03 09:14:55;;;;;;;5.60;0.95;;;26.60;66.80;;;;;;4988934;28;134898;-78
2022/07/03 09:17:22;;;;;;;4.07;0.80;;;26.70;61.10;;;;;;4940088;28;127941;-78
2022/07/03 09:19:48;;;;;;;5.50;0.80;;;26.50;61.70;;;;;;4999431;28;20041;-78
2022/07/03 09:22:21;;;;;;;5.03;0.80;;;26.30;58.30;;;;;;4952898;28;175315;-77
2022/07/03 09:24:51;;;;;;;2.97;0.70;;;26.30;59.80;;;;;;4985263;28;266115;-77
2022/07/03 09:27:20;;;;;;;4.28;0.80;;;26.40;57.80;;;;;;4939766;28;216125;-78
2022/07/03 09:30:02;;;;;;;4.57;0.82;;;26.50;55.20;;;;;;4992586;28;62852;-77
2022/07/03 09:32:49;;;;;;;6.43;0.93;;;26.40;56.00;;;;;;4944113;28;223798;-78
2022/07/03 09:35:26;;;;;;;6.57;0.90;;;26.60;56.30;;;;;;4990970;28;160449;-78
2022/07/03 09:37:52;;;;;;;5.15;0.80;;;26.90;57.40;;;;;;4966118;28;135686;-78
2022/07/03 09:40:19;;;;;;;4.53;0.90;;;27.00;57.70;;;;;;4944648;28;223220;-78
2022/07/03 09:43:06;;;;;;;5.50;0.90;;;27.30;58.60;;;;;;4970919;28;212060;-79
2022/07/03 09:45:50;;;;;;;2.90;0.70;;;27.30;52.20;;;;;;4949761;28;199465;-78
2022/07/03 09:48:31;;;;;;;5.28;0.85;;;27.20;52.70;;;;;;5014306;28;20069;-77
2022/07/03 09:51:16;;;;;;;3.75;0.80;;;27.40;52.50;;;;;;4951606;28;216532;-78
2022/07/03 09:54:02;;;;;;;4.82;0.93;;;27.50;53.70;;;;;;5002017;28;20056;-77
2022/07/03 09:56:36;;;;;;;4.18;1.08;;;27.60;52.80;;;;;;4953412;28;224949;-79
2022/07/03 09:59:12;;;;;;;3.92;0.80;;;27.60;53.80;;;;;;4994383;28;20065;-78
2022/07/03 10:01:40;;;;;;;4.40;1.00;;;28.00;53.60;;;;;;4947912;28;206402;-78
2022/07/03 10:04:15;;;;;;;6.35;0.90;;;28.00;53.20;;;;;;5006420;28;20056;-79
2022/07/03 10:06:53;;;;;;;2.75;0.70;;;28.40;53.60;;;;;;4911966;28;196541;-78
2022/07/03 10:09:23;;;;;;;4.33;0.80;;;28.30;50.90;;;;;;4990712;28;270831;-78
2022/07/03 10:11:50;;;;;;;3.95;0.80;;;27.80;52.60;;;;;;4941941;28;206108;-78
2022/07/03 10:14:21;;;;;;;5.07;0.80;;;27.60;50.40;;;;;;4986859;28;259554;-80
2022/07/03 10:16:48;;;;;;;5.00;0.90;;;27.70;51.10;;;;;;4951048;28;204245;-79
2022/07/03 10:19:18;;;;;;;3.42;0.98;;;28.10;51.00;;;;;;4978827;28;277151;-77
2022/07/03 10:21:54;;;;;;;7.65;1.20;;;28.40;51.70;;;;;;4963912;28;209236;-79
2022/07/03 10:24:25;;;;;;;6.10;1.10;;;28.40;53.40;;;;;;4985955;28;260916;-80
2022/07/03 10:26:53;;;;;;;5.65;1.10;;;28.10;54.60;;;;;;4951944;28;206223;-77
2022/07/03 10:29:24;;;;;;;5.65;1.00;;;27.70;54.30;;;;;;4968609;28;275138;-79
2022/07/03 10:31:50;;;;;;;5.68;1.00;;;27.90;53.80;;;;;;4963622;28;219123;-79
2022/07/03 10:34:21;;;;;;;4.97;0.90;;;27.90;53.80;;;;;;4993161;28;257120;-76
2022/07/03 10:36:52;;;;;;;3.17;0.90;;;28.30;53.50;;;;;;4986189;28;226956;-77
2022/07/03 10:39:33;;;;;;;4.95;1.10;;;28.50;52.60;;;;;;4991847;28;267493;-77
2022/07/03 10:45:05;;;;;;;5.22;0.90;;;28.80;51.70;;;;;;5002237;28;99644;-79
2022/07/03 10:47:48;;;;;;;5.85;1.10;;;28.70;49.40;;;;;;4943604;28;217778;-78
2022/07/03 10:50:15;;;;;;;4.95;1.10;;;28.60;50.70;;;;;;4998061;28;214533;-80
2022/07/03 10:52:42;;;;;;;6.53;1.20;;;28.60;51.80;;;;;;4973780;28;206938;-79
2022/07/03 10:55:10;;;;;;;6.20;1.20;;;28.50;51.90;;;;;;4998526;28;47578;-78
2022/07/03 10:57:37;;;;;;;6.00;1.10;;;28.90;53.10;;;;;;4954901;28;117564;-78
2022/07/03 11:00:12;;;;;;;4.90;0.93;;;29.10;52.00;;;;;;4988034;28;69945;-79
2022/07/03 11:02:41;;;;;;;6.05;1.20;;;29.10;49.80;;;;;;4937146;28;209220;-79
2022/07/03 11:05:20;;;;;;;4.03;0.82;;;28.80;48.50;;;;;;4978794;28;214860;-79
2022/07/03 11:07:55;;;;;;;4.30;1.00;;;28.90;48.60;;;;;;4912375;28;203324;-78
2022/07/03 11:10:24;;;;;;;6.35;0.90;;;29.10;49.00;;;;;;4932756;28;214803;-79
2022/07/03 11:12:56;;;;;;;4.57;0.90;;;29.40;48.40;;;;;;4989353;28;20526;-79
2022/07/03 11:15:32;;;;;;;5.53;0.90;;;29.30;46.60;;;;;;4945797;28;208845;-80
2022/07/03 11:18:28;;;;;;;4.72;0.95;;;28.70;48.40;;;;;;4988338;28;20058;-80
2022/07/03 11:20:54;;;;;;;5.75;1.10;;;29.10;47.70;;;;;;4964003;28;150648;-81
2022/07/03 11:23:29;;;;;;;6.05;1.30;;;28.90;49.50;;;;;;5006910;28;20049;-79
2022/07/03 11:26:20;;;;;;;6.20;1.15;;;29.00;51.10;;;;;;4971952;28;202626;-80
2022/07/03 11:28:46;;;;;;;7.55;1.30;;;29.20;51.40;;;;;;5005121;28;20045;-80
2022/07/03 11:31:18;;;;;;;7.07;1.17;;;29.30;51.30;;;;;;4968841;28;205562;-80
2022/07/03 11:33:53;;;;;;;6.45;1.25;;;28.90;50.50;;;;;;5010384;28;20097;-79
2022/07/03 11:36:21;;;;;;;6.38;1.45;;;29.00;51.40;;;;;;4953108;28;252993;-80
2022/07/03 11:39:07;;;;;;;6.25;1.40;;;28.50;51.80;;;;;;5019065;28;20057;-80
2022/07/03 11:41:36;;;;;;;9.35;1.48;;;27.90;51.90;;;;;;4936239;28;205454;-80
2022/07/03 11:44:04;;;;;;;9.05;1.55;;;27.30;53.40;;;;;;5025182;28;20069;-79
2022/07/03 11:46:35;;;;;;;8.07;1.40;;;27.00;53.60;;;;;;4948166;28;212299;-80
2022/07/03 11:49:22;;;;;;;6.68;1.30;;;27.10;53.70;;;;;;5012436;28;20084;-79
2022/07/03 11:51:59;;;;;;;7.88;1.58;;;27.30;54.70;;;;;;4921573;28;215415;-80
2022/07/03 11:54:30;;;;;;;7.10;1.48;;;27.50;55.30;;;;;;4992423;28;229710;-79
2022/07/03 11:56:56;;;;;;;7.63;1.40;;;27.20;55.10;;;;;;4960283;28;246095;-79
2022/07/03 11:59:22;;;;;;;7.75;1.35;;;27.50;55.50;;;;;;4988428;28;263235;-79
2022/07/03 12:01:48;;;;;;;7.70;1.30;;;27.20;55.90;;;;;;4935833;28;219873;-79
2022/07/03 12:04:24;;;;;;;9.23;1.55;;;26.90;55.00;;;;;;4969169;28;260683;-80
2022/07/03 12:06:53;;;;;;;7.10;1.10;;;26.80;55.30;;;;;;4951291;28;209721;-78
2022/07/03 12:09:33;;;;;;;7.90;1.37;;;26.90;55.60;;;;;;4982716;28;263686;-79
2022/07/03 12:12:04;;;;;;;5.93;1.27;;;27.40;54.70;;;;;;4966099;28;119624;-79
2022/07/03 12:14:44;;;;;;;4.82;0.90;;;27.80;54.40;;;;;;5005650;28;20108;-77
2022/07/03 12:17:21;;;;;;;5.00;0.90;;;28.20;53.20;;;;;;4941453;28;212462;-78
2022/07/03 12:19:48;;;;;;;7.85;1.40;;;28.40;52.80;;;;;;5005966;28;48112;-78
2022/07/03 12:22:23;;;;;;;5.93;1.00;;;28.60;51.70;;;;;;4968446;28;205548;-77
2022/07/03 12:25:05;;;;;;;4.63;0.93;;;29.00;50.60;;;;;;5002251;28;20073;-77
2022/07/03 12:27:39;;;;;;;8.85;1.17;;;29.40;50.90;;;;;;4925035;28;211101;-77
2022/07/03 12:30:07;;;;;;;6.15;1.08;;;29.20;51.20;;;;;;4977368;28;133377;-77
2022/07/03 12:32:35;;;;;;;5.72;1.00;;;29.50;52.20;;;;;;4954071;28;212212;-77
2022/07/03 12:35:02;;;;;;;6.78;1.00;;;29.50;52.10;;;;;;4984575;28;205496;-77
2022/07/03 12:37:44;;;;;;;9.15;1.17;;;29.00;52.10;;;;;;4964969;28;118968;-77
2022/07/03 12:40:13;;;;;;;7.35;1.10;;;28.70;51.30;;;;;;4992929;28;106815;-77
2022/07/03 12:42:47;;;;;;;9.60;1.38;;;28.50;52.40;;;;;;4935118;28;206026;-78
2022/07/03 12:45:15;;;;;;;7.88;1.30;;;28.90;52.10;;;;;;4993899;28;199389;-77
2022/07/03 12:47:41;;;;;;;7.22;1.20;;;28.90;52.10;;;;;;4951490;28;215644;-79
2022/07/03 12:50:08;;;;;;;8.32;1.00;;;29.00;51.10;;;;;;4999409;28;256147;-79
2022/07/03 12:52:50;;;;;;;4.75;0.90;;;29.40;50.30;;;;;;4966204;28;222926;-78
2022/07/03 12:55:28;;;;;;;5.93;1.00;;;28.90;49.30;;;;;;4975794;28;272911;-79
2022/07/03 13:00:55;;;;;;;7.30;1.10;;;28.00;52.40;;;;;;4952857;28;215144;-78
2022/07/03 13:03:35;;;;;;;5.25;0.95;;;27.30;52.90;;;;;;4998909;28;20065;-78
2022/07/03 13:06:01;;;;;;;6.38;1.05;;;26.50;54.20;;;;;;4938511;28;203315;-77